Time,TemperatureF,DewpointF,PressureIn,WindDirection,WindDirectionDegrees,WindSpeedMPH,WindSpeedGustMPH,Humidity,HourlyPrecipIn,Conditions,Clouds,dailyrainin,SolarRadiationWatts/m^2,SoftwareType,DateUTC
2013-09-04 00:01:00,72.0,44.0,-100.00,SE,136,14.0,24.0,37,0.00,,,0.00,0.000000,,2013-09-04 06:01:00,
2013-09-04 00:22:00,72.0,44.0,-100.00,SE,136,14.0,24.0,37,0.00,,,0.00,0.000000,,2013-09-04 06:22:00,
2013-09-04 00:32:00,72.0,44.0,-100.00,SE,136,14.0,24.0,37,0.00,,,0.00,0.000000,,2013-09-04 06:32:00,
2013-09-04 00:42:00,72.0,44.0,-100.00,SE,136,14.0,24.0,37,0.00,,,0.00,0.000000,,2013-09-04 06:42:00,
2013-09-04 00:52:00,72.0,44.0,-100.00,SE,136,14.0,24.0,37,0.00,,,0.00,0.000000,,2013-09-04 06:52:00,
2013-09-04 01:01:00,71.0,40.0,-100.00,ESE,117,9.0,25.0,33,0.00,,,0.00,0.000000,,2013-09-04 07:01:00,
2013-09-04 01:22:00,71.0,40.0,-100.00,ESE,117,9.0,25.0,33,0.00,,,0.00,0.000000,,2013-09-04 07:22:00,
2013-09-04 01:32:00,71.0,40.0,-100.00,ESE,117,9.0,25.0,33,0.00,,,0.00,0.000000,,2013-09-04 07:32:00,
2013-09-04 01:42:00,71.0,40.0,-100.00,ESE,117,9.0,25.0,33,0.00,,,0.00,0.000000,,2013-09-04 07:42:00,
2013-09-04 01:52:00,71.0,40.0,-100.00,ESE,117,9.0,25.0,33,0.00,,,0.00,0.000000,,2013-09-04 07:52:00,
2013-09-04 02:01:00,71.0,42.0,-100.00,ESE,120,10.0,19.0,35,0.00,,,0.00,0.000000,,2013-09-04 08:01:00,
2013-09-04 02:22:00,71.0,42.0,-100.00,ESE,120,10.0,19.0,35,0.00,,,0.00,0.000000,,2013-09-04 08:22:00,
2013-09-04 02:32:00,71.0,42.0,-100.00,ESE,120,10.0,19.0,35,0.00,,,0.00,0.000000,,2013-09-04 08:32:00,
2013-09-04 02:43:00,71.0,42.0,-100.00,ESE,120,10.0,19.0,35,0.00,,,0.00,0.000000,,2013-09-04 08:43:00,
2013-09-04 02:52:00,71.0,42.0,-100.00,ESE,120,10.0,19.0,35,0.00,,,0.00,0.000000,,2013-09-04 08:52:00,
2013-09-04 03:01:00,70.0,43.0,-100.00,East,83,5.0,21.0,38,0.00,,,0.00,0.000000,,2013-09-04 09:01:00,
2013-09-04 03:22:00,70.0,43.0,-100.00,East,83,5.0,21.0,38,0.00,,,0.00,0.000000,,2013-09-04 09:22:00,
2013-09-04 03:33:00,70.0,43.0,-100.00,East,83,5.0,21.0,38,0.00,,,0.00,0.000000,,2013-09-04 09:33:00,
2013-09-04 03:43:00,70.0,43.0,-100.00,East,83,5.0,21.0,38,0.00,,,0.00,0.000000,,2013-09-04 09:43:00,
2013-09-04 03:53:00,70.0,43.0,-100.00,East,83,5.0,21.0,38,0.00,,,0.00,0.000000,,2013-09-04 09:53:00,
2013-09-04 04:01:00,70.0,46.0,-100.00,ESE,104,9.0,15.0,42,0.00,,,0.00,0.000000,,2013-09-04 10:01:00,
2013-09-04 04:23:00,70.0,46.0,-100.00,ESE,104,9.0,15.0,42,0.00,,,0.00,0.000000,,2013-09-04 10:23:00,
2013-09-04 04:33:00,70.0,46.0,-100.00,ESE,104,9.0,15.0,42,0.00,,,0.00,0.000000,,2013-09-04 10:33:00,
2013-09-04 04:42:00,70.0,46.0,-100.00,ESE,104,9.0,15.0,42,0.00,,,0.00,0.000000,,2013-09-04 10:42:00,
2013-09-04 04:52:00,70.0,46.0,-100.00,ESE,104,9.0,15.0,42,0.00,,,0.00,0.000000,,2013-09-04 10:52:00,
2013-09-04 05:01:00,69.0,44.0,-100.00,ESE,110,9.0,14.0,41,0.00,,,0.00,0.000000,,2013-09-04 11:01:00,
2013-09-04 05:22:00,69.0,44.0,-100.00,ESE,110,9.0,14.0,41,0.00,,,0.00,0.000000,,2013-09-04 11:22:00,
2013-09-04 05:33:00,69.0,44.0,-100.00,ESE,110,9.0,14.0,41,0.00,,,0.00,0.000000,,2013-09-04 11:33:00,
2013-09-04 05:42:00,69.0,44.0,-100.00,ESE,110,9.0,14.0,41,0.00,,,0.00,0.000000,,2013-09-04 11:42:00,
2013-09-04 05:52:00,69.0,44.0,-100.00,ESE,110,9.0,14.0,41,0.00,,,0.00,0.000000,,2013-09-04 11:52:00,
2013-09-04 06:01:00,69.0,44.0,-100.00,ESE,109,11.0,16.0,40,0.00,,,0.00,0.000000,,2013-09-04 12:01:00,
2013-09-04 06:21:00,69.0,44.0,-100.00,ESE,109,11.0,16.0,40,0.00,,,0.00,0.000000,,2013-09-04 12:21:00,
2013-09-04 06:32:00,69.0,44.0,-100.00,ESE,109,11.0,16.0,40,0.00,,,0.00,0.000000,,2013-09-04 12:32:00,
2013-09-04 06:42:00,69.0,44.0,-100.00,ESE,109,11.0,16.0,40,0.00,,,0.00,0.000000,,2013-09-04 12:42:00,
2013-09-04 06:52:00,69.0,44.0,-100.00,ESE,109,11.0,16.0,40,0.00,,,0.00,0.000000,,2013-09-04 12:52:00,
2013-09-04 07:01:00,69.0,50.0,-100.00,ESE,114,11.0,19.0,50,0.00,,,0.00,3.000000,,2013-09-04 13:01:00,
2013-09-04 07:42:00,69.0,50.0,-100.00,ESE,114,11.0,19.0,50,0.00,,,0.00,3.000000,,2013-09-04 13:42:00,
2013-09-04 07:52:00,69.0,50.0,-100.00,ESE,114,11.0,19.0,50,0.00,,,0.00,3.000000,,2013-09-04 13:52:00,
2013-09-04 08:01:00,72.0,53.0,-100.00,ESE,114,8.0,16.0,51,0.00,,,0.00,80.000000,,2013-09-04 14:01:00,
2013-09-04 08:42:00,72.0,53.0,-100.00,ESE,114,8.0,16.0,51,0.00,,,0.00,80.000000,,2013-09-04 14:42:00,
2013-09-04 08:52:00,72.0,53.0,-100.00,ESE,114,8.0,16.0,51,0.00,,,0.00,80.000000,,2013-09-04 14:52:00,
2013-09-04 09:01:00,74.0,51.0,-100.00,SE,132,9.0,18.0,44,0.00,,,0.00,347.000000,,2013-09-04 15:01:00,
2013-09-04 09:43:00,74.0,51.0,-100.00,SE,132,9.0,18.0,44,0.00,,,0.00,347.000000,,2013-09-04 15:43:00,
2013-09-04 09:53:00,74.0,51.0,-100.00,SE,132,9.0,18.0,44,0.00,,,0.00,347.000000,,2013-09-04 15:53:00,
2013-09-04 10:01:00,76.0,51.0,-100.00,SE,126,10.0,20.0,41,0.00,,,0.00,560.000000,,2013-09-04 16:01:00,
2013-09-04 10:43:00,76.0,51.0,-100.00,SE,126,10.0,20.0,41,0.00,,,0.00,560.000000,,2013-09-04 16:43:00,
2013-09-04 10:53:00,76.0,51.0,-100.00,SE,126,10.0,20.0,41,0.00,,,0.00,560.000000,,2013-09-04 16:53:00,
2013-09-04 11:01:00,79.0,51.0,-100.00,ESE,122,10.0,18.0,38,0.00,,,0.00,746.000000,,2013-09-04 17:01:00,
2013-09-04 11:42:00,79.0,51.0,-100.00,ESE,122,10.0,18.0,38,0.00,,,0.00,746.000000,,2013-09-04 17:42:00,
2013-09-04 11:53:00,79.0,51.0,-100.00,ESE,122,10.0,18.0,38,0.00,,,0.00,746.000000,,2013-09-04 17:53:00,
2013-09-04 12:01:00,80.0,48.0,-100.00,East,97,7.0,20.0,33,0.00,,,0.00,886.000000,,2013-09-04 18:01:00,
2013-09-04 12:42:00,80.0,48.0,-100.00,East,97,7.0,20.0,33,0.00,,,0.00,886.000000,,2013-09-04 18:42:00,
2013-09-04 12:52:00,80.0,48.0,-100.00,East,97,7.0,20.0,33,0.00,,,0.00,886.000000,,2013-09-04 18:52:00,
2013-09-04 13:01:00,81.0,46.0,-100.00,SSE,163,13.0,22.0,29,0.00,,,0.00,891.000000,,2013-09-04 19:01:00,
2013-09-04 13:22:00,81.0,46.0,-100.00,SSE,163,13.0,22.0,29,0.00,,,0.00,891.000000,,2013-09-04 19:22:00,
2013-09-04 13:32:00,81.0,46.0,-100.00,SSE,163,13.0,22.0,29,0.00,,,0.00,891.000000,,2013-09-04 19:32:00,
2013-09-04 13:42:00,81.0,46.0,-100.00,SSE,163,13.0,22.0,29,0.00,,,0.00,891.000000,,2013-09-04 19:42:00,
2013-09-04 13:52:00,81.0,46.0,-100.00,SSE,163,13.0,22.0,29,0.00,,,0.00,891.000000,,2013-09-04 19:52:00,
2013-09-04 14:01:00,82.0,44.0,-100.00,East,96,9.0,24.0,26,0.00,,,0.00,900.000000,,2013-09-04 20:01:00,
2013-09-04 14:43:00,82.0,44.0,-100.00,East,96,9.0,24.0,26,0.00,,,0.00,900.000000,,2013-09-04 20:43:00,
2013-09-04 14:53:00,82.0,44.0,-100.00,East,96,9.0,24.0,26,0.00,,,0.00,900.000000,,2013-09-04 20:53:00,
2013-09-04 15:01:00,84.0,41.0,-100.00,SE,142,14.0,23.0,22,0.00,,,0.00,888.000000,,2013-09-04 21:01:00,
2013-09-04 15:44:00,84.0,41.0,-100.00,SE,142,14.0,23.0,22,0.00,,,0.00,888.000000,,2013-09-04 21:44:00,
2013-09-04 15:54:00,84.0,41.0,-100.00,SE,142,14.0,23.0,22,0.00,,,0.00,888.000000,,2013-09-04 21:54:00,
2013-09-04 16:01:00,84.0,41.0,-100.00,SE,135,14.0,24.0,22,0.00,,,0.00,784.000000,,2013-09-04 22:01:00,
2013-09-04 16:23:00,84.0,41.0,-100.00,SE,135,14.0,24.0,22,0.00,,,0.00,784.000000,,2013-09-04 22:23:00,
2013-09-04 16:33:00,84.0,41.0,-100.00,SE,135,14.0,24.0,22,0.00,,,0.00,784.000000,,2013-09-04 22:33:00,
2013-09-04 16:43:00,84.0,41.0,-100.00,SE,135,14.0,24.0,22,0.00,,,0.00,784.000000,,2013-09-04 22:43:00,
2013-09-04 16:55:00,84.0,41.0,-100.00,SE,135,14.0,24.0,22,0.00,,,0.00,784.000000,,2013-09-04 22:55:00,
2013-09-04 17:01:00,84.0,41.0,-100.00,SE,131,10.0,21.0,22,0.00,,,0.00,594.000000,,2013-09-04 23:01:00,
2013-09-04 17:22:00,84.0,41.0,-100.00,SE,131,10.0,21.0,22,0.00,,,0.00,594.000000,,2013-09-04 23:22:00,
2013-09-04 17:34:00,84.0,41.0,-100.00,SE,131,10.0,21.0,22,0.00,,,0.00,594.000000,,2013-09-04 23:34:00,
2013-09-04 17:42:00,84.0,41.0,-100.00,SE,131,10.0,21.0,22,0.00,,,0.00,594.000000,,2013-09-04 23:42:00,
2013-09-04 17:52:00,84.0,41.0,-100.00,SE,131,10.0,21.0,22,0.00,,,0.00,594.000000,,2013-09-04 23:52:00,
2013-09-04 18:01:00,83.0,39.0,-100.00,SE,134,10.0,18.0,21,0.00,,,0.00,366.000000,,2013-09-05 00:01:00,
2013-09-04 18:22:00,83.0,39.0,-100.00,SE,134,10.0,18.0,21,0.00,,,0.00,366.000000,,2013-09-05 00:22:00,
2013-09-04 18:32:00,83.0,39.0,-100.00,SE,134,10.0,18.0,21,0.00,,,0.00,366.000000,,2013-09-05 00:32:00,
2013-09-04 18:43:00,83.0,39.0,-100.00,SE,134,10.0,18.0,21,0.00,,,0.00,366.000000,,2013-09-05 00:43:00,
2013-09-04 18:52:00,83.0,39.0,-100.00,SE,134,10.0,18.0,21,0.00,,,0.00,366.000000,,2013-09-05 00:52:00,
2013-09-04 19:01:00,79.0,36.0,-100.00,SE,132,8.0,18.0,21,0.00,,,0.00,132.000000,,2013-09-05 01:01:00,
2013-09-04 19:42:00,79.0,36.0,-100.00,SE,132,8.0,18.0,21,0.00,,,0.00,132.000000,,2013-09-05 01:42:00,
2013-09-04 19:52:00,79.0,36.0,-100.00,SE,132,8.0,18.0,21,0.00,,,0.00,132.000000,,2013-09-05 01:52:00,
2013-09-04 20:01:00,76.0,41.0,-100.00,ESE,119,7.0,14.0,28,0.00,,,0.00,6.000000,,2013-09-05 02:01:00,
2013-09-04 20:22:00,76.0,41.0,-100.00,ESE,119,7.0,14.0,28,0.00,,,0.00,6.000000,,2013-09-05 02:22:00,
2013-09-04 20:32:00,76.0,41.0,-100.00,ESE,119,7.0,14.0,28,0.00,,,0.00,6.000000,,2013-09-05 02:32:00,
2013-09-04 20:42:00,76.0,41.0,-100.00,ESE,119,7.0,14.0,28,0.00,,,0.00,6.000000,,2013-09-05 02:42:00,
2013-09-04 20:52:00,76.0,41.0,-100.00,ESE,119,7.0,14.0,28,0.00,,,0.00,6.000000,,2013-09-05 02:52:00,
2013-09-04 21:01:00,75.0,42.0,-100.00,ESE,118,9.0,14.0,31,0.00,,,0.00,0.000000,,2013-09-05 03:01:00,
2013-09-04 21:22:00,75.0,42.0,-100.00,ESE,118,9.0,14.0,31,0.00,,,0.00,0.000000,,2013-09-05 03:22:00,
2013-09-04 21:34:00,75.0,42.0,-100.00,ESE,118,9.0,14.0,31,0.00,,,0.00,0.000000,,2013-09-05 03:34:00,
2013-09-04 21:45:00,75.0,42.0,-100.00,ESE,118,9.0,14.0,31,0.00,,,0.00,0.000000,,2013-09-05 03:45:00,
2013-09-04 21:54:00,75.0,42.0,-100.00,ESE,118,9.0,14.0,31,0.00,,,0.00,0.000000,,2013-09-05 03:54:00,
2013-09-04 22:01:00,75.0,42.0,-100.00,SE,126,10.0,16.0,31,0.00,,,0.00,0.000000,,2013-09-05 04:01:00,
2013-09-04 22:44:00,75.0,42.0,-100.00,SE,126,10.0,16.0,31,0.00,,,0.00,0.000000,,2013-09-05 04:44:00,
2013-09-04 22:53:00,75.0,42.0,-100.00,SE,126,10.0,16.0,31,0.00,,,0.00,0.000000,,2013-09-05 04:53:00,
2013-09-04 23:01:00,73.0,40.0,-100.00,ESE,116,9.0,20.0,30,0.00,,,0.00,0.000000,,2013-09-05 05:01:00,
2013-09-04 23:23:00,73.0,40.0,-100.00,ESE,116,9.0,20.0,30,0.00,,,0.00,0.000000,,2013-09-05 05:23:00,
2013-09-04 23:34:00,73.0,40.0,-100.00,ESE,116,9.0,20.0,30,0.00,,,0.00,0.000000,,2013-09-05 05:34:00,
2013-09-04 23:43:00,73.0,40.0,-100.00,ESE,116,9.0,20.0,30,0.00,,,0.00,0.000000,,2013-09-05 05:43:00,
2013-09-04 23:52:00,73.0,40.0,-100.00,ESE,116,9.0,20.0,30,0.00,,,0.00,0.000000,,2013-09-05 05:52:00,